createdAt,value
2019-02-23T00:01:23.221Z,21.92
2019-02-23T00:03:52.105Z,21.88
2019-02-23T00:06:29.462Z,21.86
2019-02-23T00:08:51.790Z,21.52
2019-02-23T00:11:20.641Z,21.80
2019-02-23T00:13:49.561Z,21.76
2019-02-23T00:16:18.542Z,21.72
2019-02-23T00:18:47.501Z,21.70
2019-02-23T00:21:16.252Z,21.66
2019-02-23T00:23:45.155Z,21.62
2019-02-23T00:26:13.973Z,21.59
2019-02-23T00:28:42.814Z,21.57
2019-02-23T00:31:11.734Z,21.54
2019-02-23T00:33:40.704Z,21.52
2019-02-23T00:36:09.434Z,21.48
2019-02-23T00:38:38.394Z,21.47
2019-02-23T00:41:07.314Z,21.43
2019-02-23T00:43:36.153Z,21.42
2019-02-23T00:46:05.182Z,21.39
2019-02-23T00:48:33.998Z,21.35
2019-02-23T00:51:02.946Z,21.34
2019-02-23T00:53:31.807Z,21.30
2019-02-23T00:56:00.728Z,21.29
2019-02-23T00:58:29.621Z,21.25
2019-02-23T01:00:58.503Z,21.22
2019-02-23T01:03:27.411Z,21.21
2019-02-23T01:05:56.321Z,21.18
2019-02-23T01:08:25.191Z,21.15
2019-02-23T01:10:58.024Z,21.13
2019-02-23T01:13:24.688Z,21.11
2019-02-23T01:15:53.451Z,21.08
2019-02-23T01:18:22.340Z,21.05
2019-02-23T01:20:51.218Z,21.04
2019-02-23T01:23:20.028Z,21.02
2019-02-23T01:25:49.096Z,21.00
2019-02-23T01:28:18.475Z,20.97
2019-02-23T01:30:47.354Z,20.94
2019-02-23T01:33:16.264Z,20.93
2019-02-23T01:35:45.184Z,20.89
2019-02-23T01:38:14.054Z,20.87
2019-02-23T01:40:42.906Z,20.85
2019-02-23T01:43:11.857Z,20.83
2019-02-23T01:45:42.593Z,20.81
2019-02-23T01:48:11.230Z,20.78
2019-02-23T01:50:40.114Z,20.77
2019-02-23T01:53:08.929Z,20.75
2019-02-23T01:55:37.762Z,20.73
2019-02-23T01:58:06.591Z,20.71
2019-02-23T02:00:35.486Z,20.70
2019-02-23T02:03:04.325Z,20.69
2019-02-23T02:05:33.268Z,20.68
2019-02-23T02:08:02.211Z,20.67
2019-02-23T02:10:31.275Z,20.67
2019-02-23T02:13:00.053Z,20.66
2019-02-23T02:15:29.021Z,20.66
2019-02-23T02:17:57.982Z,20.64
2019-02-23T02:20:26.917Z,20.64
2019-02-23T02:22:55.876Z,20.63
2019-02-23T02:25:24.721Z,20.64
2019-02-23T02:27:53.627Z,20.62
2019-02-23T02:30:22.388Z,20.61
2019-02-23T02:32:51.192Z,20.62
2019-02-23T02:35:20.014Z,20.61
2019-02-23T02:37:49.005Z,20.59
2019-02-23T02:40:17.849Z,20.59
2019-02-23T02:42:46.810Z,20.55
2019-02-23T02:45:15.716Z,20.54
2019-02-23T02:47:44.465Z,20.53
2019-02-23T02:50:23.695Z,20.50
2019-02-23T02:52:43.878Z,20.48
2019-02-23T02:55:12.780Z,20.47
2019-02-23T02:57:41.583Z,20.45
2019-02-23T03:00:12.192Z,20.42
2019-02-23T03:02:41.078Z,20.41
2019-02-23T03:05:10.100Z,20.38
2019-02-23T03:07:39.005Z,20.36
2019-02-23T03:10:07.807Z,20.36
2019-02-23T03:12:36.730Z,20.33
2019-02-23T03:15:06.544Z,20.31
2019-02-23T03:17:35.456Z,20.28
2019-02-23T03:20:04.686Z,20.26
2019-02-23T03:22:33.588Z,20.24
2019-02-23T03:25:02.455Z,20.22
2019-02-23T03:27:31.390Z,20.21
2019-02-23T03:30:00.400Z,20.19
2019-02-23T03:32:29.124Z,20.18
2019-02-23T03:34:57.990Z,20.17
2019-02-23T03:37:26.908Z,20.15
2019-02-23T03:39:55.658Z,20.13
2019-02-23T03:42:24.534Z,20.13
2019-02-23T03:44:53.340Z,20.08
2019-02-23T03:47:22.078Z,20.06
2019-02-23T03:49:50.931Z,20.06
2019-02-23T03:52:19.860Z,20.05
2019-02-23T03:54:48.684Z,20.03
2019-02-23T03:57:17.425Z,20.04
2019-02-23T03:59:46.216Z,20.05
2019-02-23T04:02:14.988Z,20.06
2019-02-23T04:04:43.891Z,20.07
2019-02-23T04:07:12.749Z,20.07
2019-02-23T04:09:41.463Z,20.08
2019-02-23T04:12:10.258Z,20.08
2019-02-23T04:14:39.103Z,20.08
2019-02-23T04:17:07.952Z,20.08
2019-02-23T04:19:36.765Z,20.08
2019-02-23T04:22:05.627Z,20.08
2019-02-23T04:24:34.664Z,20.07
2019-02-23T04:27:03.662Z,20.06
2019-02-23T04:29:32.553Z,20.06
2019-02-23T04:32:01.943Z,20.03
2019-02-23T04:34:30.938Z,20.01
2019-02-23T04:36:59.868Z,20.01
2019-02-23T04:39:28.698Z,19.98
2019-02-23T04:41:57.653Z,19.96
2019-02-23T04:44:26.413Z,19.94
2019-02-23T04:46:55.328Z,19.93
2019-02-23T04:49:25.954Z,19.90
2019-02-23T04:51:54.788Z,19.88
2019-02-23T04:54:23.603Z,19.87
2019-02-23T04:56:52.477Z,19.84
2019-02-23T04:59:21.281Z,19.84
2019-02-23T05:01:50.207Z,19.81
2019-02-23T05:04:19.158Z,19.78
2019-02-23T05:06:48.014Z,19.75
2019-02-23T05:09:16.807Z,19.72
2019-02-23T05:11:45.643Z,19.71
2019-02-23T05:14:14.557Z,19.70
2019-02-23T05:16:43.360Z,19.68
2019-02-23T05:19:12.142Z,19.67
2019-02-23T05:21:41.083Z,19.65
2019-02-23T05:24:09.932Z,19.64
2019-02-23T05:26:38.887Z,19.62
2019-02-23T05:29:07.825Z,19.63
2019-02-23T05:31:36.571Z,19.63
2019-02-23T05:34:05.381Z,19.66
2019-02-23T05:36:34.264Z,19.68
2019-02-23T05:39:03.779Z,19.70
2019-02-23T05:41:32.513Z,19.72
2019-02-23T05:44:01.385Z,19.74
2019-02-23T05:46:30.182Z,19.75
2019-02-23T05:48:58.988Z,19.78
2019-02-23T05:51:38.338Z,19.80
2019-02-23T05:53:58.581Z,19.83
2019-02-23T05:56:27.444Z,19.83
2019-02-23T05:58:56.174Z,19.83
2019-02-23T06:01:25.008Z,19.83
2019-02-23T06:03:53.854Z,19.83
2019-02-23T06:06:22.714Z,19.80
2019-02-23T06:08:51.546Z,19.78
2019-02-23T06:11:20.567Z,19.78
2019-02-23T06:13:49.410Z,19.74
2019-02-23T06:16:18.215Z,19.72
2019-02-23T06:18:47.174Z,19.70
2019-02-23T06:21:15.996Z,19.68
2019-02-23T06:23:44.819Z,19.65
2019-02-23T06:26:13.704Z,19.64
2019-02-23T06:28:42.655Z,19.61
2019-02-23T06:31:11.444Z,19.59
2019-02-23T06:33:40.327Z,19.57
2019-02-23T06:36:09.240Z,19.56
2019-02-23T06:38:38.113Z,19.53
2019-02-23T06:41:07.160Z,19.50
2019-02-23T06:43:35.972Z,19.48
2019-02-23T06:46:04.764Z,19.47
2019-02-23T06:48:33.520Z,19.45
2019-02-23T06:51:02.393Z,19.44
2019-02-23T06:53:31.305Z,19.42
2019-02-23T06:56:00.176Z,19.40
2019-02-23T06:58:29.189Z,19.42
2019-02-23T07:00:58.008Z,19.42
2019-02-23T07:03:26.903Z,19.46
2019-02-23T07:05:55.820Z,19.49
2019-02-23T07:08:24.686Z,19.54
2019-02-23T07:10:53.504Z,19.59
2019-02-23T07:13:22.504Z,19.62
2019-02-23T07:15:51.487Z,19.63
2019-02-23T07:18:20.338Z,19.67
2019-02-23T07:20:49.233Z,19.69
2019-02-23T07:23:18.068Z,19.72
2019-02-23T07:25:46.843Z,19.75
2019-02-23T07:28:15.771Z,19.79
2019-02-23T07:30:44.546Z,19.83
2019-02-23T07:33:13.385Z,19.87
2019-02-23T07:35:42.212Z,19.89
2019-02-23T07:38:11.066Z,19.94
2019-02-23T07:40:39.909Z,20.00
2019-02-23T07:43:08.795Z,20.06
2019-02-23T07:45:37.603Z,20.10
2019-02-23T07:48:06.393Z,20.12
2019-02-23T07:50:35.355Z,20.15
2019-02-23T07:53:04.744Z,20.18
2019-02-23T07:55:33.777Z,20.23
2019-02-23T07:58:02.761Z,20.31
2019-02-23T08:00:31.699Z,20.37
2019-02-23T08:03:00.592Z,20.42
2019-02-23T08:05:29.451Z,20.46
2019-02-23T08:07:58.337Z,20.46
2019-02-23T08:10:27.160Z,20.49
2019-02-23T08:12:56.139Z,20.54
2019-02-23T08:15:25.109Z,20.60
2019-02-23T08:17:54.003Z,20.67
2019-02-23T08:20:22.892Z,20.72
2019-02-23T08:22:51.898Z,20.73
2019-02-23T08:25:20.746Z,20.75
2019-02-23T08:27:49.538Z,20.76
2019-02-23T08:30:18.622Z,20.77
2019-02-23T08:32:47.740Z,20.74
2019-02-23T08:35:16.623Z,20.64
2019-02-23T08:37:45.587Z,20.56
2019-02-23T08:40:14.457Z,20.48
2019-02-23T08:42:43.373Z,20.47
2019-02-23T08:45:12.176Z,20.50
2019-02-23T08:47:41.065Z,20.26
2019-02-23T08:50:11.335Z,19.78
2019-02-23T08:52:48.538Z,18.90
2019-02-23T08:55:11.017Z,18.67
2019-02-23T08:57:39.981Z,18.18
2019-02-23T09:00:11.767Z,18.03
2019-02-23T09:02:40.601Z,17.94
2019-02-23T09:05:10.438Z,17.94
2019-02-23T09:07:39.381Z,17.32
2019-02-23T09:10:09.650Z,17.05
2019-02-23T09:12:38.483Z,17.33
2019-02-23T09:15:07.455Z,17.70
2019-02-23T09:17:36.328Z,18.04
2019-02-23T09:20:05.249Z,18.33
2019-02-23T09:22:34.147Z,18.58
2019-02-23T09:25:03.051Z,18.79
2019-02-23T09:27:31.875Z,18.91
2019-02-23T09:30:00.818Z,19.03
2019-02-23T09:32:29.796Z,19.15
2019-02-23T09:34:58.702Z,19.22
2019-02-23T09:37:27.655Z,19.36
2019-02-23T09:39:56.512Z,19.50
2019-02-23T09:42:25.506Z,19.62
2019-02-23T09:44:54.574Z,19.66
2019-02-23T09:47:23.482Z,19.66
2019-02-23T09:49:52.372Z,19.64
2019-02-23T09:52:21.315Z,19.61
2019-02-23T09:54:50.203Z,19.67
2019-02-23T09:57:19.033Z,19.74
2019-02-23T09:59:47.952Z,19.82
2019-02-23T10:02:16.773Z,19.89
2019-02-23T10:04:45.765Z,19.94
2019-02-23T10:07:14.797Z,20.10
2019-02-23T10:09:43.582Z,20.23
2019-02-23T10:12:12.526Z,20.37
2019-02-23T10:14:41.424Z,20.47
2019-02-23T10:17:10.321Z,20.52
2019-02-23T10:19:39.057Z,20.56
2019-02-23T10:22:07.951Z,20.61
2019-02-23T10:24:36.902Z,20.65
2019-02-23T10:27:05.815Z,20.60
2019-02-23T10:29:34.777Z,20.54
2019-02-23T10:32:03.673Z,20.54
2019-02-23T10:34:32.885Z,20.46
2019-02-23T10:37:01.817Z,20.46
2019-02-23T10:39:30.711Z,20.48
2019-02-23T10:41:59.639Z,20.17
2019-02-23T10:44:28.572Z,20.51
2019-02-23T10:46:57.545Z,20.44
2019-02-23T10:49:26.498Z,20.86
2019-02-23T10:51:55.514Z,21.10
2019-02-23T10:54:24.472Z,21.12
2019-02-23T10:56:53.359Z,21.06
2019-02-23T10:59:22.373Z,20.98
2019-02-23T11:01:51.345Z,20.85
2019-02-23T11:04:20.287Z,20.72
2019-02-23T11:06:49.207Z,20.61
2019-02-23T11:09:22.287Z,20.52
2019-02-23T11:11:50.697Z,20.48
2019-02-23T11:14:19.692Z,20.46
2019-02-23T11:16:48.793Z,20.44
2019-02-23T11:19:17.728Z,20.42
2019-02-23T11:21:46.718Z,20.41
2019-02-23T11:24:18.260Z,20.40
2019-02-23T11:26:46.348Z,20.41
2019-02-23T11:29:15.315Z,20.40
2019-02-23T11:31:44.526Z,20.40
2019-02-23T11:34:13.433Z,20.44
2019-02-23T11:36:42.645Z,20.46
2019-02-23T11:39:11.729Z,20.49
2019-02-23T11:41:41.599Z,20.50
2019-02-23T11:44:10.608Z,20.53
2019-02-23T11:46:39.597Z,20.54
2019-02-23T11:49:08.567Z,20.55
2019-02-23T11:51:37.564Z,20.55
2019-02-23T11:54:06.524Z,20.54
2019-02-23T11:56:35.330Z,20.52
2019-02-23T11:59:04.224Z,20.50
2019-02-23T12:01:33.282Z,20.48
2019-02-23T12:04:02.308Z,20.46
2019-02-23T12:06:31.199Z,20.45
2019-02-23T12:09:00.035Z,20.44
2019-02-23T12:11:28.976Z,20.40
2019-02-23T12:13:57.979Z,20.37
2019-02-23T12:16:27.016Z,20.37
2019-02-23T12:18:55.977Z,20.37
2019-02-23T12:21:25.049Z,20.35
2019-02-23T12:23:53.955Z,20.36
2019-02-23T12:26:22.925Z,20.34
2019-02-23T12:28:51.891Z,20.33
2019-02-23T12:31:20.739Z,20.30
2019-02-23T12:33:49.615Z,20.27
2019-02-23T12:36:18.577Z,20.23
2019-02-23T12:38:50.285Z,20.20
2019-02-23T12:41:19.100Z,20.18
2019-02-23T12:43:48.170Z,20.15
2019-02-23T12:46:17.073Z,20.13
2019-02-23T12:48:47.408Z,20.15
2019-02-23T12:51:16.431Z,20.16
2019-02-23T12:53:45.796Z,20.19
2019-02-23T12:56:14.759Z,20.22
2019-02-23T12:58:43.679Z,20.25
2019-02-23T13:01:12.680Z,20.26
2019-02-23T13:03:41.539Z,20.29
2019-02-23T13:06:10.464Z,20.32
2019-02-23T13:09:13.671Z,20.33
2019-02-23T13:11:44.586Z,20.36
2019-02-23T13:14:55.827Z,20.42
2019-02-23T13:18:18.619Z,20.46
2019-02-23T13:21:33.067Z,20.49
2019-02-23T13:24:32.857Z,20.53
2019-02-23T13:27:26.868Z,20.56
2019-02-23T13:30:24.703Z,20.26
2019-02-23T13:33:29.243Z,20.61
2019-02-23T13:36:43.505Z,20.63
2019-02-23T13:39:21.023Z,20.65
2019-02-23T13:42:05.742Z,20.62
2019-02-23T13:45:04.208Z,20.60
2019-02-23T13:48:30.516Z,20.61
2019-02-23T13:51:20.344Z,20.60
2019-02-23T13:54:57.646Z,20.59
2019-02-23T13:58:12.980Z,20.57
2019-02-23T14:01:13.718Z,20.54
2019-02-23T14:04:06.890Z,20.51
2019-02-23T14:07:07.248Z,20.49
2019-02-23T14:10:00.332Z,20.47
2019-02-23T14:12:57.652Z,20.47
2019-02-23T14:15:40.612Z,20.45
2019-02-23T14:19:05.878Z,20.42
2019-02-23T14:22:21.752Z,20.38
2019-02-23T14:25:15.455Z,19.99
2019-02-23T14:28:13.344Z,20.27
2019-02-23T14:31:19.205Z,20.22
2019-02-23T14:34:23.775Z,20.22
2019-02-23T14:37:29.581Z,20.23
2019-02-23T14:40:33.422Z,20.20
2019-02-23T14:43:08.733Z,20.20
2019-02-23T14:46:32.993Z,20.22
2019-02-23T14:49:36.831Z,20.21
2019-02-23T14:52:19.490Z,20.14
2019-02-23T14:55:13.370Z,20.07
2019-02-23T14:57:58.650Z,20.04
2019-02-23T15:00:52.809Z,20.01
2019-02-23T15:03:57.478Z,20.00
2019-02-23T15:06:43.189Z,19.97
2019-02-23T15:10:07.276Z,19.94
2019-02-23T15:13:23.144Z,19.94
2019-02-23T15:16:22.382Z,19.96
2019-02-23T15:19:38.328Z,20.12
2019-02-23T15:22:56.121Z,20.39
2019-02-23T15:26:14.777Z,20.77
2019-02-23T15:29:16.788Z,21.10
2019-02-23T15:32:24.560Z,21.38
2019-02-23T15:35:34.620Z,21.58
2019-02-23T15:38:43.370Z,21.71
2019-02-23T15:41:49.393Z,21.80
2019-02-23T15:44:34.962Z,21.85
2019-02-23T15:47:40.705Z,21.88
2019-02-23T15:50:13.231Z,21.92
2019-02-23T15:52:40.503Z,21.93
2019-02-23T15:55:09.392Z,21.96
2019-02-23T15:57:38.250Z,21.95
2019-02-23T16:00:07.809Z,21.97
2019-02-23T16:02:36.780Z,21.96
2019-02-23T16:05:05.823Z,21.90
2019-02-23T16:07:34.848Z,21.87
2019-02-23T16:10:03.796Z,21.83
2019-02-23T16:12:33.098Z,21.81
2019-02-23T16:15:02.187Z,21.73
2019-02-23T16:17:31.362Z,21.64
2019-02-23T16:20:00.298Z,21.54
2019-02-23T16:22:29.149Z,21.51
2019-02-23T16:24:58.097Z,21.54
2019-02-23T16:27:27.100Z,21.59
2019-02-23T16:29:56.258Z,21.66
2019-02-23T16:32:25.168Z,21.74
2019-02-23T16:34:54.099Z,21.80
2019-02-23T16:37:23.071Z,21.88
2019-02-23T16:39:52.214Z,21.96
2019-02-23T16:42:21.191Z,22.07
2019-02-23T16:44:50.193Z,22.15
2019-02-23T16:47:19.217Z,22.21
2019-02-23T16:49:48.612Z,22.27
2019-02-23T16:52:18.987Z,22.30
2019-02-23T16:54:49.029Z,22.35
2019-02-23T16:57:18.445Z,22.39
2019-02-23T16:59:47.991Z,22.44
2019-02-23T17:02:16.993Z,22.48
2019-02-23T17:04:53.441Z,22.51
2019-02-23T17:07:16.451Z,22.53
2019-02-23T17:09:45.381Z,22.53
2019-02-23T17:12:14.524Z,22.52
2019-02-23T17:14:43.810Z,22.51
2019-02-23T17:17:13.049Z,22.47
2019-02-23T17:19:42.334Z,22.40
2019-02-23T17:22:11.407Z,22.38
2019-02-23T17:24:40.344Z,22.37
2019-02-23T17:27:09.411Z,22.36
2019-02-23T17:29:38.730Z,22.35
2019-02-23T17:32:07.854Z,22.35
2019-02-23T17:34:36.932Z,22.33
2019-02-23T17:37:07.071Z,22.34
2019-02-23T17:39:36.410Z,22.33
2019-02-23T17:42:05.615Z,22.31
2019-02-23T17:44:34.806Z,22.27
2019-02-23T17:47:04.237Z,22.24
2019-02-23T17:49:33.610Z,22.21
2019-02-23T17:52:03.403Z,22.20
2019-02-23T17:54:32.650Z,22.15
2019-02-23T17:57:01.509Z,22.13
2019-02-23T17:59:30.898Z,22.19
2019-02-23T18:01:59.929Z,22.23
2019-02-23T18:04:28.917Z,22.29
2019-02-23T18:06:58.377Z,22.39
2019-02-23T18:09:27.747Z,22.51
2019-02-23T18:11:57.352Z,22.59
2019-02-23T18:14:27.048Z,22.68
2019-02-23T18:16:56.233Z,22.71
2019-02-23T18:19:25.299Z,22.76
2019-02-23T18:21:54.221Z,22.81
2019-02-23T18:24:23.398Z,22.87
2019-02-23T18:26:52.595Z,22.92
2019-02-23T18:29:22.015Z,22.96
2019-02-23T18:31:51.204Z,23.02
2019-02-23T18:34:20.781Z,23.08
2019-02-23T18:36:50.033Z,23.14
2019-02-23T18:39:19.446Z,23.20
2019-02-23T18:41:49.205Z,23.25
2019-02-23T18:44:18.784Z,23.26
2019-02-23T18:46:47.911Z,23.21
2019-02-23T18:49:16.962Z,23.14
2019-02-23T18:51:47.192Z,23.09
2019-02-23T18:54:16.419Z,23.08
2019-02-23T18:56:45.750Z,23.07
2019-02-23T18:59:14.894Z,23.01
2019-02-23T19:01:44.079Z,22.98
2019-02-23T19:04:13.295Z,22.96
2019-02-23T19:06:42.305Z,22.97
2019-02-23T19:09:11.621Z,22.98
2019-02-23T19:11:40.715Z,23.00
2019-02-23T19:14:09.935Z,23.02
2019-02-23T19:16:38.979Z,23.02
2019-02-23T19:19:08.038Z,23.03
2019-02-23T19:21:37.265Z,23.00
2019-02-23T19:24:06.312Z,22.97
2019-02-23T19:26:38.298Z,22.95
2019-02-23T19:29:06.294Z,22.95
2019-02-23T19:31:35.418Z,22.92
2019-02-23T19:34:04.589Z,22.90
2019-02-23T19:36:33.694Z,22.91
2019-02-23T19:39:03.039Z,22.89
2019-02-23T19:41:32.112Z,22.89
2019-02-23T19:44:01.146Z,22.89
2019-02-23T19:46:30.596Z,22.89
2019-02-23T19:49:01.902Z,22.91
2019-02-23T19:51:32.511Z,22.95
2019-02-23T19:54:02.253Z,23.01
2019-02-23T19:56:31.866Z,23.05
2019-02-23T19:59:02.009Z,23.08
2019-02-23T20:01:31.083Z,23.11
2019-02-23T20:04:00.647Z,23.12
2019-02-23T20:06:29.883Z,23.12
2019-02-23T20:08:58.976Z,23.14
2019-02-23T20:11:27.943Z,23.13
2019-02-23T20:13:57.039Z,23.11
2019-02-23T20:16:26.841Z,23.09
2019-02-23T20:18:56.261Z,23.06
2019-02-23T20:21:25.469Z,23.04
2019-02-23T20:23:54.716Z,23.02
2019-02-23T20:26:23.677Z,22.97
2019-02-23T20:28:52.701Z,22.95
2019-02-23T20:31:21.876Z,22.90
2019-02-23T20:33:51.711Z,22.87
2019-02-23T20:36:20.826Z,22.85
2019-02-23T20:38:50.516Z,22.80
2019-02-23T20:41:20.286Z,22.72
2019-02-23T20:43:50.037Z,22.67
2019-02-23T20:46:19.830Z,22.62
2019-02-23T20:48:49.178Z,22.58
2019-02-23T20:51:18.891Z,22.56
2019-02-23T20:53:48.370Z,22.53
2019-02-23T20:56:17.636Z,22.52
2019-02-23T20:58:47.080Z,22.51
2019-02-23T21:01:16.348Z,22.51
2019-02-23T21:03:46.605Z,22.53
2019-02-23T21:06:15.751Z,22.55
2019-02-23T21:08:45.268Z,22.56
2019-02-23T21:11:15.025Z,22.56
2019-02-23T21:13:44.167Z,22.56
2019-02-23T21:16:15.250Z,22.54
2019-02-23T21:18:44.549Z,22.53
2019-02-23T21:21:14.099Z,22.50
2019-02-23T21:23:43.965Z,22.47
2019-02-23T21:26:12.976Z,22.48
2019-02-23T21:28:42.243Z,22.49
2019-02-23T21:31:11.834Z,22.47
2019-02-23T21:33:41.109Z,22.42
2019-02-23T21:36:10.574Z,22.35
2019-02-23T21:38:40.084Z,22.31
2019-02-23T21:41:09.284Z,22.28
2019-02-23T21:43:38.432Z,22.26
2019-02-23T21:46:07.879Z,22.23
2019-02-23T21:48:36.957Z,22.21
2019-02-23T21:51:06.127Z,22.19
2019-02-23T21:53:35.189Z,22.18
2019-02-23T21:56:04.752Z,22.19
2019-02-23T21:58:33.611Z,22.24
2019-02-23T22:01:02.858Z,22.31
2019-02-23T22:03:32.339Z,22.39
2019-02-23T22:06:02.364Z,22.47
2019-02-23T22:08:31.807Z,22.52
2019-02-23T22:11:01.411Z,22.56
2019-02-23T22:13:30.628Z,22.59
2019-02-23T22:15:59.839Z,22.61
2019-02-23T22:18:28.938Z,22.62
2019-02-23T22:20:58.367Z,22.63
2019-02-23T22:23:27.418Z,22.62
2019-02-23T22:25:56.309Z,22.63
2019-02-23T22:28:25.424Z,22.62
2019-02-23T22:30:54.466Z,22.62
2019-02-23T22:33:23.620Z,22.62
2019-02-23T22:35:52.631Z,22.62
2019-02-23T22:38:21.657Z,22.61
2019-02-23T22:40:50.648Z,22.63
2019-02-23T22:43:19.598Z,22.65
2019-02-23T22:45:48.638Z,22.68
2019-02-23T22:48:17.720Z,22.71
2019-02-23T22:50:46.655Z,22.74
2019-02-23T22:53:15.674Z,22.76
2019-02-23T22:55:44.708Z,22.78
2019-02-23T22:58:13.696Z,22.80
2019-02-23T23:00:59.776Z,22.82
2019-02-23T23:03:28.726Z,22.82
2019-02-23T23:05:57.758Z,22.79
2019-02-23T23:08:26.742Z,22.78
2019-02-23T23:10:55.776Z,22.77
2019-02-23T23:13:24.724Z,22.75
2019-02-23T23:15:53.586Z,22.71
2019-02-23T23:18:22.552Z,22.68
2019-02-23T23:20:51.491Z,22.66
2019-02-23T23:23:20.431Z,22.64
2019-02-23T23:25:49.383Z,22.63
2019-02-23T23:28:18.336Z,22.60
2019-02-23T23:30:47.255Z,22.57
2019-02-23T23:33:16.247Z,22.55
2019-02-23T23:35:45.131Z,22.53
2019-02-23T23:38:14.025Z,22.51
2019-02-23T23:40:42.996Z,22.48
2019-02-23T23:43:11.947Z,22.46
2019-02-23T23:45:40.883Z,22.42
2019-02-23T23:48:09.782Z,22.39
2019-02-23T23:50:38.662Z,22.37
2019-02-23T23:53:07.714Z,22.33
2019-02-23T23:55:36.628Z,22.29
2019-02-23T23:58:05.558Z,22.27
